Estación Meteorológica Peña el Pijo (Robertgarden) [ 12/11/18 10:51:43 CET ]

Fecha Hora Presion(HPa) Temp (°C) Humedad % Rocio (°C) Viento ( m/s) Direccion Lluvia 1Hora(mm) Lluvia 24H(mm) LLuvia Total(mm)
2018-Dec-01 01:01:54 1012.400 -0.1 81 -2.9         154.88
2018-Dec-01 02:02:29 1011.800 -0.6 82 -3.3         154.88
2018-Dec-01 03:02:18 1011.400 -0.5 82 -3.2         154.88
2018-Dec-01 04:02:22 1011.300 -1.4 83 -3.9         154.88
2018-Dec-01 05:02:23 1011.200 -1.6 83 -4.1         154.88
2018-Dec-01 06:10:08 1011.500 -1.6 82 -4.3         154.88
2018-Dec-01 07:01:52 1011.100 -1.6 81 -4.4         154.88
2018-Dec-01 08:01:51 1011.500 -1.4 79 -4.6         154.88
2018-Dec-01 09:01:48 1011.900 0.1 76 -3.6         154.88
2018-Dec-01 10:01:59 1012.300 3.3 67 -2.3         154.88
2018-Dec-01 11:01:48 1012.800 9.5 53 0.4         154.88
2018-Dec-01 12:01:47 1011.800 14.1 31 -2.8         154.88
2018-Dec-01 13:01:42 1011.200 15.8 25 -4.4         154.88
2018-Dec-01 14:01:39 1011.100 16.3 21 -6.1 1.5 NNW     154.88
2018-Dec-01 15:01:40 1011.000 16.6 21 -5.9         154.88
2018-Dec-01 16:01:55 1010.800 15.8 23 -5.5         154.88
2018-Dec-01 17:01:43 1011.400 13.4 23 -7.5         154.88
2018-Dec-01 18:02:03 1011.500 10.8 29 -6.6         154.88
2018-Dec-01 19:01:45 1012.300 7.2 40 -5.5         154.88
2018-Dec-01 20:01:39 1012.700 6.4 43 -5.3         154.88
2018-Dec-01 21:01:38 1012.700 6.6 40 -6.1         154.88
2018-Dec-01 22:01:39 1012.800 6.3 42 -5.7         154.88
2018-Dec-01 23:01:39 1012.300 5.9 44 -5.5         154.88

Temperatura Máxima:16°    Temperatura Mínima:-1°
Presión Máxima:1012.800 Hpa    Presión Mínima:1010.800 Hpa


Volver